Time,TemperatureF,DewpointF,PressureIn,WindDirection,WindDirectionDegrees,WindSpeedMPH,WindSpeedGustMPH,Humidity,HourlyPrecipIn,Conditions,Clouds,dailyrainin,SoftwareType,DateUTC
2013-06-17 00:08:00,78.5,42.5,29.95,SSE,158,2.5,2.5,28,0.00,,,0.00,WUHU216HW,2013-06-17 07:08:00,
2013-06-17 00:18:00,77.9,43.0,29.95,SE,135,0.9,3.1,29,0.00,,,0.00,WUHU216HW,2013-06-17 07:18:00,
2013-06-17 00:28:00,77.8,39.8,29.95,SSW,203,0.9,2.7,26,0.00,,,0.00,WUHU216HW,2013-06-17 07:28:00,
2013-06-17 00:38:00,77.9,40.0,29.95,SE,135,0.9,2.5,26,0.00,,,0.00,WUHU216HW,2013-06-17 07:38:00,
2013-06-17 00:48:00,77.8,41.9,29.95,SE,135,0.7,1.6,28,0.00,,,0.00,WUHU216HW,2013-06-17 07:48:00,
2013-06-17 00:58:00,77.4,41.6,29.95,SE,135,0.9,2.9,28,0.00,,,0.00,WUHU216HW,2013-06-17 07:58:00,
2013-06-17 01:08:00,77.0,41.3,29.95,SSE,158,1.8,2.5,28,0.00,,,0.00,WUHU216HW,2013-06-17 08:08:00,
2013-06-17 01:18:00,76.5,40.9,29.95,SSE,158,0.4,2.0,28,0.00,,,0.00,WUHU216HW,2013-06-17 08:18:00,
2013-06-17 01:28:00,76.1,41.6,29.95,SSE,158,0.9,1.6,29,0.00,,,0.00,WUHU216HW,2013-06-17 08:28:00,
2013-06-17 01:38:00,75.8,41.2,29.95,SSE,158,0.7,1.1,29,0.00,,,0.00,WUHU216HW,2013-06-17 08:38:00,
2013-06-17 01:48:00,75.2,42.5,29.95,SSE,158,0.4,0.7,31,0.00,,,0.00,WUHU216HW,2013-06-17 08:48:00,
2013-06-17 01:58:00,74.7,42.8,29.95,East,90,0.9,0.9,32,0.00,,,0.00,WUHU216HW,2013-06-17 08:58:00,
2013-06-17 02:08:00,74.2,43.0,29.95,ENE,68,0.0,0.7,33,0.00,,,0.00,WUHU216HW,2013-06-17 09:08:00,
2013-06-17 02:18:00,73.8,42.8,29.95,East,90,0.2,0.9,33,0.00,,,0.00,WUHU216HW,2013-06-17 09:18:00,
2013-06-17 02:28:00,73.3,43.0,29.95,East,90,0.0,0.0,34,0.00,,,0.00,WUHU216HW,2013-06-17 09:28:00,
2013-06-17 02:38:00,73.1,43.7,29.95,SSW,203,0.4,0.9,35,0.00,,,0.00,WUHU216HW,2013-06-17 09:38:00,
2013-06-17 02:48:00,72.5,44.6,29.95,SW,225,0.0,0.4,37,0.00,,,0.00,WUHU216HW,2013-06-17 09:48:00,
2013-06-17 02:58:00,72.2,45.1,29.95,SE,135,0.4,0.4,38,0.00,,,0.00,WUHU216HW,2013-06-17 09:58:00,
2013-06-17 03:08:00,71.8,44.0,29.95,South,180,0.0,0.4,37,0.00,,,0.00,WUHU216HW,2013-06-17 10:08:00,
2013-06-17 03:18:00,71.5,44.5,29.95,South,180,0.0,0.0,38,0.00,,,0.00,WUHU216HW,2013-06-17 10:18:00,
2013-06-17 03:28:00,71.1,44.8,29.95,SW,225,0.0,0.9,39,0.00,,,0.00,WUHU216HW,2013-06-17 10:28:00,
2013-06-17 03:38:00,70.6,45.1,29.95,ESE,113,0.0,0.4,40,0.00,,,0.00,WUHU216HW,2013-06-17 10:38:00,
2013-06-17 03:49:00,70.2,44.8,29.95,SSW,203,0.0,0.4,40,0.00,,,0.00,WUHU216HW,2013-06-17 10:49:00,
2013-06-17 03:59:00,70.0,45.2,29.95,NNW,338,0.0,0.4,41,0.00,,,0.00,WUHU216HW,2013-06-17 10:59:00,
2013-06-17 04:09:00,69.7,44.9,29.95,NNW,338,0.2,0.4,41,0.00,,,0.00,WUHU216HW,2013-06-17 11:09:00,
2013-06-17 04:19:00,69.5,45.4,29.96,West,270,0.0,0.0,42,0.00,,,0.00,WUHU216HW,2013-06-17 11:19:00,
2013-06-17 04:29:00,69.1,46.2,29.96,South,180,0.0,1.1,44,0.00,,,0.00,WUHU216HW,2013-06-17 11:29:00,
2013-06-17 04:39:00,68.8,45.9,29.96,SSE,158,0.0,0.4,44,0.00,,,0.00,WUHU216HW,2013-06-17 11:39:00,
2013-06-17 04:49:00,68.4,45.5,29.96,SE,135,0.0,0.4,44,0.00,,,0.00,WUHU216HW,2013-06-17 11:49:00,
2013-06-17 04:59:00,68.2,46.0,29.96,East,90,0.4,0.4,45,0.00,,,0.00,WUHU216HW,2013-06-17 11:59:00,
2013-06-17 05:09:00,67.9,45.6,29.96,NNE,23,0.0,1.6,45,0.00,,,0.00,WUHU216HW,2013-06-17 12:09:00,
2013-06-17 05:19:00,67.9,45.6,29.96,WSW,248,0.4,0.4,45,0.00,,,0.00,WUHU216HW,2013-06-17 12:19:00,
2013-06-17 05:29:00,67.7,46.7,29.97,WSW,248,0.2,0.2,47,0.00,,,0.00,WUHU216HW,2013-06-17 12:29:00,
2013-06-17 05:39:00,67.5,47.1,29.97,WSW,248,0.0,0.4,48,0.00,,,0.00,WUHU216HW,2013-06-17 12:39:00,
2013-06-17 05:49:00,67.7,47.9,29.97,SSE,158,1.1,1.1,49,0.00,,,0.00,WUHU216HW,2013-06-17 12:49:00,
2013-06-17 05:59:00,67.9,47.4,29.98,SE,135,0.2,0.7,48,0.00,,,0.00,WUHU216HW,2013-06-17 12:59:00,
2013-06-17 06:09:00,70.0,49.4,29.98,SSE,158,1.3,1.8,48,0.00,,,0.00,WUHU216HW,2013-06-17 13:09:00,
2013-06-17 06:19:00,72.9,50.2,29.98,SW,225,0.0,1.8,45,0.00,,,0.00,WUHU216HW,2013-06-17 13:19:00,
2013-06-17 06:29:00,72.9,49.6,29.98,SW,225,0.0,0.0,44,0.00,,,0.00,WUHU216HW,2013-06-17 13:29:00,
2013-06-17 06:39:00,73.4,49.5,29.98,SSE,158,0.0,0.7,43,0.00,,,0.00,WUHU216HW,2013-06-17 13:39:00,
2013-06-17 06:49:00,74.5,49.3,29.98,SW,225,0.0,0.4,41,0.00,,,0.00,WUHU216HW,2013-06-17 13:49:00,
2013-06-17 06:59:00,75.8,49.1,29.98,SSW,203,0.4,0.7,39,0.00,,,0.00,WUHU216HW,2013-06-17 13:59:00,
2013-06-17 07:09:00,76.7,49.2,29.98,SSE,158,0.0,1.1,38,0.00,,,0.00,WUHU216HW,2013-06-17 14:09:00,
2013-06-17 07:20:00,77.9,49.4,29.98,SSW,203,1.1,1.6,37,0.00,,,0.00,WUHU216HW,2013-06-17 14:20:00,
2013-06-17 07:30:00,78.7,47.8,29.98,SSW,203,1.3,1.6,34,0.00,,,0.00,WUHU216HW,2013-06-17 14:30:00,
2013-06-17 07:40:00,79.6,47.8,29.99,SSW,203,0.0,1.1,33,0.00,,,0.00,WUHU216HW,2013-06-17 14:40:00,
2013-06-17 07:50:00,80.8,48.2,29.99,SSW,203,1.1,1.1,32,0.00,,,0.00,WUHU216HW,2013-06-17 14:50:00,
2013-06-17 08:00:00,81.7,47.4,29.99,West,270,0.7,0.9,30,0.00,,,0.00,WUHU216HW,2013-06-17 15:00:00,
2013-06-17 08:10:00,82.4,46.8,30.00,NNW,338,1.8,1.8,29,0.00,,,0.00,WUHU216HW,2013-06-17 15:10:00,
2013-06-17 08:20:00,83.5,46.7,30.00,NW,315,1.6,1.8,28,0.00,,,0.00,WUHU216HW,2013-06-17 15:20:00,
2013-06-17 08:30:00,84.6,45.5,29.99,NW,315,1.8,2.0,26,0.00,,,0.00,WUHU216HW,2013-06-17 15:30:00,
2013-06-17 08:40:00,85.7,44.4,29.99,NNW,338,1.1,2.2,24,0.00,,,0.00,WUHU216HW,2013-06-17 15:40:00,
2013-06-17 08:50:00,86.6,44.0,29.99,WNW,293,1.6,2.5,23,0.00,,,0.00,WUHU216HW,2013-06-17 15:50:00,
2013-06-17 09:00:00,87.7,43.9,29.99,WSW,248,1.8,3.4,22,0.00,,,0.00,WUHU216HW,2013-06-17 16:00:00,
2013-06-17 09:10:00,88.7,44.8,29.99,West,270,0.0,2.9,22,0.00,,,0.00,WUHU216HW,2013-06-17 16:10:00,
2013-06-17 09:20:00,89.6,44.5,29.99,WSW,248,1.6,2.2,21,0.00,,,0.00,WUHU216HW,2013-06-17 16:20:00,
2013-06-17 09:30:00,90.5,42.4,29.99,WSW,248,0.7,3.1,19,0.00,,,0.00,WUHU216HW,2013-06-17 16:30:00,
2013-06-17 09:41:00,91.3,41.2,29.98,North,0,2.9,3.6,18,0.00,,,0.00,WUHU216HW,2013-06-17 16:41:00,
2013-06-17 09:51:00,91.8,39.9,29.98,SW,225,0.4,3.1,17,0.00,,,0.00,WUHU216HW,2013-06-17 16:51:00,
2013-06-17 10:01:00,92.3,40.3,29.98,West,270,0.4,3.8,17,0.00,,,0.00,WUHU216HW,2013-06-17 17:01:00,
2013-06-17 10:11:00,92.9,39.0,29.98,West,270,0.4,4.0,16,0.00,,,0.00,WUHU216HW,2013-06-17 17:11:00,
2013-06-17 10:21:00,93.2,39.3,29.98,North,0,3.1,3.4,16,0.00,,,0.00,WUHU216HW,2013-06-17 17:21:00,
2013-06-17 10:31:00,93.8,37.9,29.98,NNW,338,1.8,4.5,15,0.00,,,0.00,WUHU216HW,2013-06-17 17:31:00,
2013-06-17 10:41:00,94.9,38.7,29.98,WSW,248,1.3,6.5,15,0.00,,,0.00,WUHU216HW,2013-06-17 17:41:00,
2013-06-17 10:51:00,95.8,39.4,29.98,WSW,248,0.4,4.5,15,0.00,,,0.00,WUHU216HW,2013-06-17 17:51:00,
2013-06-17 11:01:00,96.1,36.2,29.97,NW,315,2.2,4.7,13,0.00,,,0.00,WUHU216HW,2013-06-17 18:01:00,
2013-06-17 11:11:00,97.0,36.9,29.97,WSW,248,1.8,4.7,13,0.00,,,0.00,WUHU216HW,2013-06-17 18:11:00,
2013-06-17 11:21:00,97.2,37.0,29.97,NW,315,0.9,3.6,13,0.00,,,0.00,WUHU216HW,2013-06-17 18:21:00,
2013-06-17 11:31:00,97.9,37.6,29.97,WNW,293,2.5,5.4,13,0.00,,,0.00,WUHU216HW,2013-06-17 18:31:00,
2013-06-17 11:41:00,98.1,37.7,29.96,NNE,23,1.6,6.3,13,0.00,,,0.00,WUHU216HW,2013-06-17 18:41:00,
2013-06-17 11:51:00,98.5,36.2,29.96,WSW,248,1.8,4.0,12,0.00,,,0.00,WUHU216HW,2013-06-17 18:51:00,
2013-06-17 12:01:00,99.4,36.9,29.96,WSW,248,1.8,3.1,12,0.00,,,0.00,WUHU216HW,2013-06-17 19:01:00,
2013-06-17 12:11:00,99.9,37.4,29.95,SSW,203,1.1,2.5,12,0.00,,,0.00,WUHU216HW,2013-06-17 19:11:00,
2013-06-17 12:21:00,100.4,36.0,29.95,SE,135,5.6,7.6,11,0.00,,,0.00,WUHU216HW,2013-06-17 19:21:00,
2013-06-17 12:31:00,101.3,34.8,29.95,SSW,203,4.0,8.5,10,0.00,,,0.00,WUHU216HW,2013-06-17 19:31:00,
2013-06-17 12:41:00,102.1,35.4,29.95,NW,315,2.2,7.2,10,0.00,,,0.00,WUHU216HW,2013-06-17 19:41:00,
2013-06-17 12:51:00,102.2,35.5,29.94,SW,225,5.4,5.8,10,0.00,,,0.00,WUHU216HW,2013-06-17 19:51:00,
2013-06-17 13:01:00,102.6,35.7,29.94,West,270,3.8,6.5,10,0.00,,,0.00,WUHU216HW,2013-06-17 20:01:00,
2013-06-17 13:12:00,102.6,35.7,29.94,WNW,293,1.8,6.5,10,0.00,,,0.00,WUHU216HW,2013-06-17 20:12:00,
2013-06-17 13:22:00,102.8,35.9,29.93,South,180,4.7,6.9,10,0.00,,,0.00,WUHU216HW,2013-06-17 20:22:00,
2013-06-17 13:32:00,103.5,36.5,29.93,SSW,203,1.6,6.0,10,0.00,,,0.00,WUHU216HW,2013-06-17 20:32:00,
2013-06-17 13:42:00,103.9,36.7,29.93,West,270,2.7,4.3,10,0.00,,,0.00,WUHU216HW,2013-06-17 20:42:00,
2013-06-17 13:52:00,103.7,36.6,29.92,NNW,338,1.8,5.4,10,0.00,,,0.00,WUHU216HW,2013-06-17 20:52:00,
2013-06-17 14:02:00,102.8,35.9,29.92,NNW,338,3.4,6.0,8,0.00,,,0.00,WUHU216HW,2013-06-17 21:02:00,
2013-06-17 14:12:00,102.4,35.7,29.91,North,0,4.0,10.3,8,0.00,,,0.00,WUHU216HW,2013-06-17 21:12:00,
2013-06-17 14:22:00,103.0,36.0,29.91,NNE,23,2.0,5.8,9,0.00,,,0.00,WUHU216HW,2013-06-17 21:22:00,
2013-06-17 14:32:00,102.6,35.7,29.90,West,270,4.5,7.8,8,0.00,,,0.00,WUHU216HW,2013-06-17 21:32:00,
2013-06-17 14:42:00,103.3,36.4,29.90,WNW,293,6.7,6.9,8,0.00,,,0.00,WUHU216HW,2013-06-17 21:42:00,
2013-06-17 14:52:00,103.9,36.7,29.89,WNW,293,2.5,6.7,8,0.00,,,0.00,WUHU216HW,2013-06-17 21:52:00,
2013-06-17 15:02:00,104.0,36.9,29.89,NE,45,1.1,9.2,8,0.00,,,0.00,WUHU216HW,2013-06-17 22:02:00,
2013-06-17 15:12:00,103.1,36.2,29.88,NW,315,1.6,7.8,8,0.00,,,0.00,WUHU216HW,2013-06-17 22:12:00,
2013-06-17 15:22:00,103.1,36.2,29.88,North,0,10.5,10.5,7,0.00,,,0.00,WUHU216HW,2013-06-17 22:22:00,
2013-06-17 15:32:00,102.6,35.7,29.87,West,270,6.0,7.4,8,0.00,,,0.00,WUHU216HW,2013-06-17 22:32:00,
2013-06-17 15:42:00,103.1,36.2,29.87,WSW,248,4.5,7.6,8,0.00,,,0.00,WUHU216HW,2013-06-17 22:42:00,
2013-06-17 15:52:00,103.7,36.6,29.87,West,270,1.6,6.3,8,0.00,,,0.00,WUHU216HW,2013-06-17 22:52:00,
2013-06-17 16:02:00,103.9,36.7,29.86,WSW,248,2.9,4.0,7,0.00,,,0.00,WUHU216HW,2013-06-17 23:02:00,
2013-06-17 16:12:00,104.0,36.9,29.86,NW,315,3.4,8.5,8,0.00,,,0.00,WUHU216HW,2013-06-17 23:12:00,
2013-06-17 16:22:00,104.2,37.0,29.85,NNE,23,6.0,7.8,7,0.00,,,0.00,WUHU216HW,2013-06-17 23:22:00,
2013-06-17 16:33:00,103.9,36.7,29.85,North,0,1.8,4.9,8,0.00,,,0.00,WUHU216HW,2013-06-17 23:33:00,
2013-06-17 16:43:00,103.7,36.6,29.85,NNW,338,4.7,6.9,7,0.00,,,0.00,WUHU216HW,2013-06-17 23:43:00,
2013-06-17 16:53:00,103.3,36.4,29.85,NNE,23,3.6,8.7,7,0.00,,,0.00,WUHU216HW,2013-06-17 23:53:00,
2013-06-17 17:03:00,103.0,36.0,29.85,NNW,338,4.0,4.7,7,0.00,,,0.00,WUHU216HW,2013-06-18 00:03:00,
2013-06-17 17:13:00,103.0,36.0,29.85,NNW,338,1.1,6.0,7,0.00,,,0.00,WUHU216HW,2013-06-18 00:13:00,
2013-06-17 17:23:00,102.8,35.9,29.85,NW,315,2.5,7.8,7,0.00,,,0.00,WUHU216HW,2013-06-18 00:23:00,
2013-06-17 17:33:00,102.6,35.7,29.84,NNW,338,3.6,4.7,7,0.00,,,0.00,WUHU216HW,2013-06-18 00:33:00,
2013-06-17 17:43:00,102.1,35.4,29.84,North,0,3.4,7.4,7,0.00,,,0.00,WUHU216HW,2013-06-18 00:43:00,
2013-06-17 17:53:00,101.7,35.1,29.84,NW,315,5.4,7.6,8,0.00,,,0.00,WUHU216HW,2013-06-18 00:53:00,
2013-06-17 18:03:00,101.3,34.8,29.84,NW,315,6.3,7.2,7,0.00,,,0.00,WUHU216HW,2013-06-18 01:03:00,
2013-06-17 18:13:00,101.2,34.8,29.85,NNE,23,4.0,6.3,7,0.00,,,0.00,WUHU216HW,2013-06-18 01:13:00,
2013-06-17 18:23:00,100.8,34.5,29.85,NNE,23,2.5,4.5,8,0.00,,,0.00,WUHU216HW,2013-06-18 01:23:00,
2013-06-17 18:33:00,100.4,34.2,29.85,NW,315,4.7,6.5,8,0.00,,,0.00,WUHU216HW,2013-06-18 01:33:00,
2013-06-17 18:43:00,99.9,33.8,29.85,NNW,338,1.8,6.9,8,0.00,,,0.00,WUHU216HW,2013-06-18 01:43:00,
2013-06-17 18:53:00,99.4,33.3,29.84,North,0,2.0,5.4,8,0.00,,,0.00,WUHU216HW,2013-06-18 01:53:00,
2013-06-17 19:03:00,98.6,32.8,29.85,NNW,338,6.9,6.9,7,0.00,,,0.00,WUHU216HW,2013-06-18 02:03:00,
2013-06-17 19:13:00,97.9,32.2,29.85,NW,315,4.0,6.3,8,0.00,,,0.00,WUHU216HW,2013-06-18 02:13:00,
2013-06-17 19:23:00,97.4,31.8,29.85,NW,315,1.1,7.6,8,0.00,,,0.00,WUHU216HW,2013-06-18 02:23:00,
2013-06-17 19:33:00,96.5,31.1,29.85,NNW,338,0.9,2.5,9,0.00,,,0.00,WUHU216HW,2013-06-18 02:33:00,
2013-06-17 19:43:00,95.4,30.3,29.85,NNW,338,1.1,2.5,10,0.00,,,0.00,WUHU216HW,2013-06-18 02:43:00,
2013-06-17 19:54:00,94.5,29.6,29.85,NNW,338,0.9,2.5,10,0.00,,,0.00,WUHU216HW,2013-06-18 02:54:00,
2013-06-17 20:04:00,93.2,30.4,29.85,NW,315,1.3,1.8,11,0.00,,,0.00,WUHU216HW,2013-06-18 03:04:00,
2013-06-17 20:14:00,92.2,31.4,29.85,NW,315,0.9,1.3,12,0.00,,,0.00,WUHU216HW,2013-06-18 03:14:00,
2013-06-17 20:24:00,91.3,30.7,29.85,WNW,293,0.0,0.7,12,0.00,,,0.00,WUHU216HW,2013-06-18 03:24:00,
2013-06-17 20:34:00,90.0,31.4,29.86,North,0,1.3,1.3,13,0.00,,,0.00,WUHU216HW,2013-06-18 03:34:00,
2013-06-17 20:44:00,89.1,34.2,29.86,NW,315,1.1,1.1,15,0.00,,,0.00,WUHU216HW,2013-06-18 03:44:00,
2013-06-17 20:54:00,87.8,35.0,29.86,WNW,293,0.0,0.4,16,0.00,,,0.00,WUHU216HW,2013-06-18 03:54:00,
2013-06-17 21:04:00,87.1,36.1,29.87,West,270,0.4,0.4,17,0.00,,,0.00,WUHU216HW,2013-06-18 04:04:00,
2013-06-17 21:14:00,86.0,35.2,29.87,SSE,158,0.7,0.9,17,0.00,,,0.00,WUHU216HW,2013-06-18 04:14:00,
2013-06-17 21:24:00,85.3,38.1,29.88,SSE,158,0.0,0.9,19,0.00,,,0.00,WUHU216HW,2013-06-18 04:24:00,
2013-06-17 21:34:00,84.4,37.4,29.88,SSE,158,0.0,0.4,19,0.00,,,0.00,WUHU216HW,2013-06-18 04:34:00,
2013-06-17 21:44:00,83.7,39.5,29.88,SSE,158,0.7,0.9,21,0.00,,,0.00,WUHU216HW,2013-06-18 04:44:00,
2013-06-17 21:54:00,83.0,38.9,29.88,SE,135,0.0,0.7,21,0.00,,,0.00,WUHU216HW,2013-06-18 04:54:00,
2013-06-17 22:04:00,82.3,38.3,29.89,SE,135,0.0,0.2,21,0.00,,,0.00,WUHU216HW,2013-06-18 05:04:00,
2013-06-17 22:14:00,81.5,38.8,29.89,SE,135,0.0,0.4,22,0.00,,,0.00,WUHU216HW,2013-06-18 05:14:00,
2013-06-17 22:24:00,80.8,39.2,29.89,East,90,0.0,0.9,23,0.00,,,0.00,WUHU216HW,2013-06-18 05:24:00,
2013-06-17 22:34:00,80.3,38.8,29.89,ESE,113,0.0,0.9,23,0.00,,,0.00,WUHU216HW,2013-06-18 05:34:00,
2013-06-17 22:44:00,79.7,39.3,29.90,SSW,203,1.1,1.1,24,0.00,,,0.00,WUHU216HW,2013-06-18 05:44:00,
2013-06-17 22:54:00,79.4,37.0,29.90,SSW,203,1.1,1.1,22,0.00,,,0.00,WUHU216HW,2013-06-18 05:54:00,
2013-06-17 23:04:00,79.2,37.8,29.90,SSE,158,2.5,2.7,23,0.00,,,0.00,WUHU216HW,2013-06-18 06:04:00,
2013-06-17 23:14:00,79.0,37.7,29.90,SSW,203,1.1,2.7,23,0.00,,,0.00,WUHU216HW,2013-06-18 06:14:00,
2013-06-17 23:25:00,78.7,37.4,29.90,SSE,158,1.8,3.8,23,0.00,,,0.00,WUHU216HW,2013-06-18 06:25:00,
2013-06-17 23:35:00,78.5,38.3,29.90,SSW,203,2.9,2.9,24,0.00,,,0.00,WUHU216HW,2013-06-18 06:35:00,
2013-06-17 23:45:00,78.1,38.0,29.90,NNW,338,0.7,1.1,24,0.00,,,0.00,WUHU216HW,2013-06-18 06:45:00,
2013-06-17 23:55:00,77.6,37.5,29.90,SE,135,0.0,1.1,24,0.00,,,0.00,WUHU216HW,2013-06-18 06:55:00,